Forest Hills, New York
Current Conditions -  °F | °C
As of 6:51 AM on Saturday 20 Dec 2014 (Local Time) from KLGA Reporting Station
Overcast Overcast  
Wind Chill: 23°   Ceiling: 2800
Heat Index: 31°   Visibility: 10mi
Dew Point: 21°   Wind: 9mph
Humidity: 67%   Direction: 10°N
Pressure: 30.27"   Gusts: NA
Location:  40.72°N, 73.85°W
Report Text: KLGA 201151Z 01008KT 10SM OVC028 M01/M06 A3027 RMK AO2 SLP251 T10061061 10006 21006 53018
Loading
Personal Weather Stations






























Interactive Weather Map New forecast layout! Learn more

10-Day Weather Forecast

Advertisements
Track Severe Weather on mobile